sensor_id;sensor_type;location;lat;lon;timestamp;pressure;altitude;pressure_sealevel;temperature;humidity
9335;BME280;4706;41.844;26.082;2022-10-31T00:00:43;101029.09;;;16.98;45.87
9335;BME280;4706;41.844;26.082;2022-10-31T00:03:08;101027.47;;;16.97;45.85
9335;BME280;4706;41.844;26.082;2022-10-31T00:05:34;101032.06;;;16.93;45.99
9335;BME280;4706;41.844;26.082;2022-10-31T00:07:59;101034.69;;;16.89;46.04
9335;BME280;4706;41.844;26.082;2022-10-31T00:10:25;101028.44;;;16.92;45.94
9335;BME280;4706;41.844;26.082;2022-10-31T00:12:51;101021.91;;;16.88;45.83
9335;BME280;4706;41.844;26.082;2022-10-31T00:15:17;101020.44;;;16.91;45.76
9335;BME280;4706;41.844;26.082;2022-10-31T00:17:42;101021.25;;;16.91;45.70
9335;BME280;4706;41.844;26.082;2022-10-31T00:20:08;100992.56;;;16.61;45.96
9335;BME280;4706;41.844;26.082;2022-10-31T00:22:34;101020.81;;;16.72;46.20
9335;BME280;4706;41.844;26.082;2022-10-31T00:24:59;101021.81;;;16.67;46.29
9335;BME280;4706;41.844;26.082;2022-10-31T00:27:25;101008.72;;;16.68;46.13
9335;BME280;4706;41.844;26.082;2022-10-31T00:29:50;101010.22;;;16.74;46.18
9335;BME280;4706;41.844;26.082;2022-10-31T00:32:16;101010.06;;;16.62;46.43
9335;BME280;4706;41.844;26.082;2022-10-31T00:34:41;101015.44;;;16.67;46.44
9335;BME280;4706;41.844;26.082;2022-10-31T00:37:07;101007.94;;;16.67;46.45
9335;BME280;4706;41.844;26.082;2022-10-31T00:39:32;101011.50;;;16.77;46.34
9335;BME280;4706;41.844;26.082;2022-10-31T00:41:58;101009.22;;;16.70;46.30
9335;BME280;4706;41.844;26.082;2022-10-31T00:44:23;100997.63;;;16.68;46.43
9335;BME280;4706;41.844;26.082;2022-10-31T00:46:49;101009.38;;;16.65;46.75
9335;BME280;4706;41.844;26.082;2022-10-31T00:49:14;101005.16;;;16.67;46.76
9335;BME280;4706;41.844;26.082;2022-10-31T00:51:39;101006.97;;;16.63;46.78
9335;BME280;4706;41.844;26.082;2022-10-31T00:54:05;101008.06;;;16.71;46.83
9335;BME280;4706;41.844;26.082;2022-10-31T00:56:30;101009.38;;;16.65;46.79
9335;BME280;4706;41.844;26.082;2022-10-31T00:58:56;101013.31;;;16.64;46.89
9335;BME280;4706;41.844;26.082;2022-10-31T01:01:22;101007.78;;;16.64;47.01
9335;BME280;4706;41.844;26.082;2022-10-31T01:03:47;101008.78;;;16.59;47.21
9335;BME280;4706;41.844;26.082;2022-10-31T01:06:13;100975.00;;;16.31;47.27
9335;BME280;4706;41.844;26.082;2022-10-31T01:08:39;101016.28;;;16.50;47.63
9335;BME280;4706;41.844;26.082;2022-10-31T01:11:20;101022.84;;;16.45;47.86
9335;BME280;4706;41.844;26.082;2022-10-31T01:13:47;101020.06;;;16.45;47.94
9335;BME280;4706;41.844;26.082;2022-10-31T01:16:18;101025.47;;;16.33;48.03
9335;BME280;4706;41.844;26.082;2022-10-31T01:18:44;101021.88;;;16.41;48.01
9335;BME280;4706;41.844;26.082;2022-10-31T01:21:18;101012.38;;;16.42;47.43
9335;BME280;4706;41.844;26.082;2022-10-31T01:23:45;101016.63;;;16.48;47.28
9335;BME280;4706;41.844;26.082;2022-10-31T01:28:50;101013.88;;;16.40;47.17
9335;BME280;4706;41.844;26.082;2022-10-31T01:31:18;101020.25;;;16.32;47.06
9335;BME280;4706;41.844;26.082;2022-10-31T01:33:44;101008.66;;;16.21;47.37
9335;BME280;4706;41.844;26.082;2022-10-31T01:36:55;101002.13;;;16.25;47.51
9335;BME280;4706;41.844;26.082;2022-10-31T01:39:00;101012.22;;;16.39;47.62
9335;BME280;4706;41.844;26.082;2022-10-31T01:41:31;101014.69;;;16.32;47.66
9335;BME280;4706;41.844;26.082;2022-10-31T01:46:54;101014.53;;;16.28;47.74
9335;BME280;4706;41.844;26.082;2022-10-31T01:49:29;101023.03;;;16.23;47.91
9335;BME280;4706;41.844;26.082;2022-10-31T01:52:03;101026.31;;;16.25;47.89
9335;BME280;4706;41.844;26.082;2022-10-31T01:54:33;101015.53;;;16.15;48.21
9335;BME280;4706;41.844;26.082;2022-10-31T01:57:02;101023.34;;;16.13;48.18
9335;BME280;4706;41.844;26.082;2022-10-31T01:59:30;101043.44;;;16.18;48.41
9335;BME280;4706;41.844;26.082;2022-10-31T02:01:57;101027.94;;;16.17;48.41
9335;BME280;4706;41.844;26.082;2022-10-31T02:04:24;101034.78;;;16.20;48.41
9335;BME280;4706;41.844;26.082;2022-10-31T02:06:57;101035.75;;;16.24;48.17
9335;BME280;4706;41.844;26.082;2022-10-31T02:09:24;101032.19;;;16.15;48.29
9335;BME280;4706;41.844;26.082;2022-10-31T02:11:52;101030.41;;;16.10;48.39
9335;BME280;4706;41.844;26.082;2022-10-31T02:14:22;101036.91;;;16.06;48.49
9335;BME280;4706;41.844;26.082;2022-10-31T02:16:48;101032.19;;;16.15;48.22
9335;BME280;4706;41.844;26.082;2022-10-31T02:19:20;101034.47;;;16.04;48.05
9335;BME280;4706;41.844;26.082;2022-10-31T02:22:06;101047.84;;;16.02;48.35
9335;BME280;4706;41.844;26.082;2022-10-31T02:27:37;101045.56;;;16.04;48.31
9335;BME280;4706;41.844;26.082;2022-10-31T02:30:30;101045.22;;;15.97;48.59
9335;BME280;4706;41.844;26.082;2022-10-31T02:41:10;101063.03;;;15.87;49.15
9335;BME280;4706;41.844;26.082;2022-10-31T02:44:19;101061.38;;;15.86;49.08
9335;BME280;4706;41.844;26.082;2022-10-31T02:46:53;101067.09;;;15.90;49.32
9335;BME280;4706;41.844;26.082;2022-10-31T02:49:40;101064.19;;;15.95;49.29
9335;BME280;4706;41.844;26.082;2022-10-31T02:54:45;101066.78;;;15.91;49.48
9335;BME280;4706;41.844;26.082;2022-10-31T02:57:12;101061.41;;;15.95;49.47
9335;BME280;4706;41.844;26.082;2022-10-31T02:59:45;101056.28;;;15.71;49.76
9335;BME280;4706;41.844;26.082;2022-10-31T03:02:30;101056.63;;;15.69;50.17
9335;BME280;4706;41.844;26.082;2022-10-31T03:05:17;101056.47;;;15.83;49.83
9335;BME280;4706;41.844;26.082;2022-10-31T03:10:58;101050.56;;;15.67;49.73
9335;BME280;4706;41.844;26.082;2022-10-31T03:13:41;101057.28;;;15.66;50.06
9335;BME280;4706;41.844;26.082;2022-10-31T03:16:22;101055.91;;;15.64;50.02
9335;BME280;4706;41.844;26.082;2022-10-31T03:18:56;101054.16;;;15.68;49.75
9335;BME280;4706;41.844;26.082;2022-10-31T03:21:32;101060.81;;;15.58;49.87
9335;BME280;4706;41.844;26.082;2022-10-31T03:24:00;101008.69;;;15.20;50.16
9335;BME280;4706;41.844;26.082;2022-10-31T03:26:26;101060.19;;;15.61;50.14
9335;BME280;4706;41.844;26.082;2022-10-31T03:28:59;101053.47;;;15.62;50.02
9335;BME280;4706;41.844;26.082;2022-10-31T03:31:33;101058.84;;;15.59;50.20
9335;BME280;4706;41.844;26.082;2022-10-31T03:34:00;101063.31;;;15.68;50.50
9335;BME280;4706;41.844;26.082;2022-10-31T03:36:30;101057.44;;;15.70;50.04
9335;BME280;4706;41.844;26.082;2022-10-31T03:38:58;101056.09;;;15.59;50.15
9335;BME280;4706;41.844;26.082;2022-10-31T03:41:29;101061.63;;;15.59;50.24
9335;BME280;4706;41.844;26.082;2022-10-31T03:44:08;101055.09;;;15.54;50.47
9335;BME280;4706;41.844;26.082;2022-10-31T03:46:36;101055.56;;;15.57;50.30
9335;BME280;4706;41.844;26.082;2022-10-31T03:49:02;101068.09;;;15.45;50.67
9335;BME280;4706;41.844;26.082;2022-10-31T03:54:08;101078.31;;;15.67;50.60
9335;BME280;4706;41.844;26.082;2022-10-31T03:56:37;101075.56;;;15.76;50.39
9335;BME280;4706;41.844;26.082;2022-10-31T03:59:14;101069.19;;;15.67;50.10
9335;BME280;4706;41.844;26.082;2022-10-31T04:01:47;101064.78;;;15.66;50.21
9335;BME280;4706;41.844;26.082;2022-10-31T04:04:14;101077.00;;;15.65;50.25
9335;BME280;4706;41.844;26.082;2022-10-31T04:06:42;101077.09;;;15.51;50.36
9335;BME280;4706;41.844;26.082;2022-10-31T04:09:09;101087.72;;;15.58;50.51
9335;BME280;4706;41.844;26.082;2022-10-31T04:11:40;101081.59;;;15.69;50.10
9335;BME280;4706;41.844;26.082;2022-10-31T04:14:07;101083.03;;;15.67;49.93
9335;BME280;4706;41.844;26.082;2022-10-31T04:16:33;101096.09;;;15.75;49.74
9335;BME280;4706;41.844;26.082;2022-10-31T04:18:59;101091.88;;;15.69;49.79
9335;BME280;4706;41.844;26.082;2022-10-31T04:21:28;101095.81;;;15.76;50.14
9335;BME280;4706;41.844;26.082;2022-10-31T04:23:55;101087.25;;;15.64;50.16
9335;BME280;4706;41.844;26.082;2022-10-31T04:26:21;101093.63;;;15.65;50.21
9335;BME280;4706;41.844;26.082;2022-10-31T04:28:47;101104.94;;;15.68;50.37
9335;BME280;4706;41.844;26.082;2022-10-31T04:31:12;101103.88;;;15.64;50.55
9335;BME280;4706;41.844;26.082;2022-10-31T04:33:38;101110.47;;;15.68;50.74
9335;BME280;4706;41.844;26.082;2022-10-31T04:36:04;101111.09;;;15.65;50.46
9335;BME280;4706;41.844;26.082;2022-10-31T04:38:30;101107.69;;;15.68;50.65
9335;BME280;4706;41.844;26.082;2022-10-31T04:40:55;101103.78;;;15.69;50.55
9335;BME280;4706;41.844;26.082;2022-10-31T04:43:21;101103.13;;;15.72;50.73
9335;BME280;4706;41.844;26.082;2022-10-31T04:45:46;101103.78;;;15.69;50.70
9335;BME280;4706;41.844;26.082;2022-10-31T04:48:12;101109.97;;;15.66;50.88
9335;BME280;4706;41.844;26.082;2022-10-31T04:50:37;101104.72;;;15.65;50.82
9335;BME280;4706;41.844;26.082;2022-10-31T04:53:03;101106.66;;;15.64;50.70
9335;BME280;4706;41.844;26.082;2022-10-31T04:55:28;101111.13;;;15.74;50.50
9335;BME280;4706;41.844;26.082;2022-10-31T04:57:53;101108.34;;;15.65;50.86
9335;BME280;4706;41.844;26.082;2022-10-31T05:00:21;101096.59;;;15.68;50.52
9335;BME280;4706;41.844;26.082;2022-10-31T05:02:54;101110.13;;;15.70;50.51
9335;BME280;4706;41.844;26.082;2022-10-31T05:05:27;101112.09;;;15.69;50.68
9335;BME280;4706;41.844;26.082;2022-10-31T05:07:53;101117.94;;;15.68;50.76
9335;BME280;4706;41.844;26.082;2022-10-31T05:10:21;101122.06;;;15.79;50.54
9335;BME280;4706;41.844;26.082;2022-10-31T05:12:49;101111.78;;;15.79;50.36
9335;BME280;4706;41.844;26.082;2022-10-31T05:15:15;101127.31;;;15.89;50.38
9335;BME280;4706;41.844;26.082;2022-10-31T05:17:41;101130.72;;;15.86;50.48
9335;BME280;4706;41.844;26.082;2022-10-31T05:20:07;101133.66;;;15.90;50.38
9335;BME280;4706;41.844;26.082;2022-10-31T05:22:33;101142.00;;;15.90;50.36
9335;BME280;4706;41.844;26.082;2022-10-31T05:24:59;101137.09;;;15.87;50.36
9335;BME280;4706;41.844;26.082;2022-10-31T05:27:25;101135.81;;;15.93;50.37
9335;BME280;4706;41.844;26.082;2022-10-31T05:29:50;101143.50;;;15.96;50.28
9335;BME280;4706;41.844;26.082;2022-10-31T05:32:16;101149.22;;;15.99;50.17
9335;BME280;4706;41.844;26.082;2022-10-31T05:34:41;101149.22;;;15.99;50.11
9335;BME280;4706;41.844;26.082;2022-10-31T05:37:07;101156.72;;;15.99;50.04
9335;BME280;4706;41.844;26.082;2022-10-31T05:39:32;101165.03;;;15.99;50.21
9335;BME280;4706;41.844;26.082;2022-10-31T05:41:58;101172.56;;;16.07;50.01
9335;BME280;4706;41.844;26.082;2022-10-31T05:44:24;101177.66;;;16.14;50.03
9335;BME280;4706;41.844;26.082;2022-10-31T05:46:50;101189.06;;;16.12;50.13
9335;BME280;4706;41.844;26.082;2022-10-31T05:49:15;101186.97;;;16.18;50.16
9335;BME280;4706;41.844;26.082;2022-10-31T05:51:42;101193.16;;;16.23;50.02
9335;BME280;4706;41.844;26.082;2022-10-31T05:54:08;101204.59;;;16.22;49.90
9335;BME280;4706;41.844;26.082;2022-10-31T05:56:33;101194.31;;;16.22;49.88
9335;BME280;4706;41.844;26.082;2022-10-31T05:58:59;101198.69;;;16.15;50.03
9335;BME280;4706;41.844;26.082;2022-10-31T06:01:24;101196.09;;;16.18;50.06
9335;BME280;4706;41.844;26.082;2022-10-31T06:03:50;101198.06;;;16.26;49.92
9335;BME280;4706;41.844;26.082;2022-10-31T06:06:16;101196.09;;;16.27;50.12
9335;BME280;4706;41.844;26.082;2022-10-31T06:08:42;101195.28;;;16.26;50.00
9335;BME280;4706;41.844;26.082;2022-10-31T06:11:08;101198.25;;;16.30;50.03
9335;BME280;4706;41.844;26.082;2022-10-31T06:13:34;101216.22;;;16.41;50.02
9335;BME280;4706;41.844;26.082;2022-10-31T06:16:00;101204.28;;;16.49;49.82
9335;BME280;4706;41.844;26.082;2022-10-31T06:18:28;101212.66;;;16.67;49.63
9335;BME280;4706;41.844;26.082;2022-10-31T06:20:54;101209.56;;;16.77;49.33
9335;BME280;4706;41.844;26.082;2022-10-31T06:23:19;101214.78;;;16.96;48.95
9335;BME280;4706;41.844;26.082;2022-10-31T06:25:49;101210.38;;;17.12;48.43
9335;BME280;4706;41.844;26.082;2022-10-31T06:28:15;101204.13;;;17.24;48.30
9335;BME280;4706;41.844;26.082;2022-10-31T06:30:41;101207.38;;;17.35;48.30
9335;BME280;4706;41.844;26.082;2022-10-31T06:33:07;101216.34;;;17.49;48.10
9335;BME280;4706;41.844;26.082;2022-10-31T06:35:52;101213.81;;;17.65;47.94
9335;BME280;4706;41.844;26.082;2022-10-31T06:38:20;101216.22;;;17.84;47.12
9335;BME280;4706;41.844;26.082;2022-10-31T06:40:48;101219.41;;;18.03;46.64
9335;BME280;4706;41.844;26.082;2022-10-31T06:43:14;101222.94;;;18.12;46.21
9335;BME280;4706;41.844;26.082;2022-10-31T06:45:40;101188.16;;;17.98;46.45
9335;BME280;4706;41.844;26.082;2022-10-31T06:48:13;101210.47;;;18.18;46.33
9335;BME280;4706;41.844;26.082;2022-10-31T06:50:42;101216.13;;;18.31;46.23
9335;BME280;4706;41.844;26.082;2022-10-31T06:53:07;101225.25;;;18.40;45.98
9335;BME280;4706;41.844;26.082;2022-10-31T06:55:52;101221.25;;;18.50;45.57
9335;BME280;4706;41.844;26.082;2022-10-31T06:58:18;101217.09;;;18.56;45.69
9335;BME280;4706;41.844;26.082;2022-10-31T07:00:45;101206.25;;;18.63;45.34
9335;BME280;4706;41.844;26.082;2022-10-31T07:03:16;101208.22;;;18.83;45.17
9335;BME280;4706;41.844;26.082;2022-10-31T07:05:42;101211.53;;;18.98;44.97
9335;BME280;4706;41.844;26.082;2022-10-31T07:08:28;101211.66;;;19.22;44.58
9335;BME280;4706;41.844;26.082;2022-10-31T07:10:55;101219.47;;;19.41;44.04
9335;BME280;4706;41.844;26.082;2022-10-31T07:13:21;101208.38;;;19.65;43.52
9335;BME280;4706;41.844;26.082;2022-10-31T07:15:54;101215.25;;;19.93;43.31
9335;BME280;4706;41.844;26.082;2022-10-31T07:18:21;101210.59;;;20.21;42.35
9335;BME280;4706;41.844;26.082;2022-10-31T07:20:47;101199.19;;;20.51;41.84
9335;BME280;4706;41.844;26.082;2022-10-31T07:23:14;101206.78;;;20.78;41.55
9335;BME280;4706;41.844;26.082;2022-10-31T07:25:40;101199.00;;;21.00;40.75
9335;BME280;4706;41.844;26.082;2022-10-31T07:28:06;101193.19;;;21.21;40.70
9335;BME280;4706;41.844;26.082;2022-10-31T07:30:31;101205.78;;;21.43;40.08
9335;BME280;4706;41.844;26.082;2022-10-31T07:32:57;101209.53;;;21.63;40.04
9335;BME280;4706;41.844;26.082;2022-10-31T07:35:25;101202.94;;;21.87;39.01
9335;BME280;4706;41.844;26.082;2022-10-31T07:37:51;101187.41;;;21.89;38.72
9335;BME280;4706;41.844;26.082;2022-10-31T07:40:17;101209.41;;;22.22;38.61
9335;BME280;4706;41.844;26.082;2022-10-31T07:42:46;101208.19;;;22.39;38.41
9335;BME280;4706;41.844;26.082;2022-10-31T07:45:16;101208.69;;;22.61;38.19
9335;BME280;4706;41.844;26.082;2022-10-31T07:47:44;101212.81;;;22.86;37.39
9335;BME280;4706;41.844;26.082;2022-10-31T07:50:18;101199.91;;;23.01;37.08
9335;BME280;4706;41.844;26.082;2022-10-31T07:52:44;101205.06;;;23.18;37.26
9335;BME280;4706;41.844;26.082;2022-10-31T07:55:10;101202.28;;;23.41;36.46
9335;BME280;4706;41.844;26.082;2022-10-31T07:57:35;101189.66;;;23.51;36.17
9335;BME280;4706;41.844;26.082;2022-10-31T08:00:05;101206.94;;;23.76;35.89
9335;BME280;4706;41.844;26.082;2022-10-31T08:02:31;101199.66;;;23.98;35.41
9335;BME280;4706;41.844;26.082;2022-10-31T08:04:57;101197.50;;;24.14;35.00
9335;BME280;4706;41.844;26.082;2022-10-31T08:07:23;101191.00;;;24.37;34.80
9335;BME280;4706;41.844;26.082;2022-10-31T08:09:48;101197.66;;;24.52;34.59
9335;BME280;4706;41.844;26.082;2022-10-31T08:12:13;101193.09;;;24.70;34.34
9335;BME280;4706;41.844;26.082;2022-10-31T08:14:39;101191.75;;;24.90;33.41
9335;BME280;4706;41.844;26.082;2022-10-31T08:17:05;101193.88;;;25.01;33.53
9335;BME280;4706;41.844;26.082;2022-10-31T08:19:30;101194.47;;;25.13;33.95
9335;BME280;4706;41.844;26.082;2022-10-31T08:21:56;101196.19;;;25.25;33.72
9335;BME280;4706;41.844;26.082;2022-10-31T08:24:22;101185.06;;;25.39;33.18
9335;BME280;4706;41.844;26.082;2022-10-31T08:26:47;101192.47;;;25.55;33.37
9335;BME280;4706;41.844;26.082;2022-10-31T08:29:13;101186.50;;;25.63;33.14
9335;BME280;4706;41.844;26.082;2022-10-31T08:31:40;101194.34;;;25.84;32.93
9335;BME280;4706;41.844;26.082;2022-10-31T08:34:06;101193.25;;;26.00;32.65
9335;BME280;4706;41.844;26.082;2022-10-31T08:36:31;101196.19;;;26.14;32.49
9335;BME280;4706;41.844;26.082;2022-10-31T08:38:57;101191.03;;;26.30;32.25
9335;BME280;4706;41.844;26.082;2022-10-31T08:41:22;101186.72;;;26.47;31.65
9335;BME280;4706;41.844;26.082;2022-10-31T08:43:48;101187.25;;;26.67;31.36
9335;BME280;4706;41.844;26.082;2022-10-31T08:46:14;101187.66;;;26.76;31.29
9335;BME280;4706;41.844;26.082;2022-10-31T08:48:39;101191.38;;;26.91;31.25
9335;BME280;4706;41.844;26.082;2022-10-31T08:51:05;101187.72;;;26.91;31.09
9335;BME280;4706;41.844;26.082;2022-10-31T08:53:31;101183.31;;;27.04;31.17
9335;BME280;4706;41.844;26.082;2022-10-31T08:55:57;101187.84;;;27.16;31.05
9335;BME280;4706;41.844;26.082;2022-10-31T08:58:23;101187.47;;;27.31;30.76
9335;BME280;4706;41.844;26.082;2022-10-31T09:00:51;101183.44;;;27.40;30.57
9335;BME280;4706;41.844;26.082;2022-10-31T09:03:22;101192.31;;;27.52;29.93
9335;BME280;4706;41.844;26.082;2022-10-31T09:05:49;101185.47;;;27.50;30.37
9335;BME280;4706;41.844;26.082;2022-10-31T09:08:16;101185.06;;;27.58;30.39
9335;BME280;4706;41.844;26.082;2022-10-31T09:10:42;101185.50;;;27.75;30.15
9335;BME280;4706;41.844;26.082;2022-10-31T09:13:14;101181.88;;;27.92;29.84
9335;BME280;4706;41.844;26.082;2022-10-31T09:15:41;101187.09;;;28.01;30.07
9335;BME280;4706;41.844;26.082;2022-10-31T09:18:10;101184.25;;;28.15;29.86
9335;BME280;4706;41.844;26.082;2022-10-31T09:20:37;101188.25;;;28.32;29.58
9335;BME280;4706;41.844;26.082;2022-10-31T09:23:05;101176.56;;;28.37;29.63
9335;BME280;4706;41.844;26.082;2022-10-31T09:25:32;101174.09;;;28.46;29.39
9335;BME280;4706;41.844;26.082;2022-10-31T09:28:00;101169.63;;;28.60;29.25
9335;BME280;4706;41.844;26.082;2022-10-31T09:30:27;101177.66;;;28.68;29.42
9335;BME280;4706;41.844;26.082;2022-10-31T09:33:01;101183.28;;;28.75;29.27
9335;BME280;4706;41.844;26.082;2022-10-31T09:35:28;101182.84;;;28.80;29.36
9335;BME280;4706;41.844;26.082;2022-10-31T09:38:01;101180.81;;;28.85;29.32
9335;BME280;4706;41.844;26.082;2022-10-31T09:40:32;101177.97;;;28.88;29.36
9335;BME280;4706;41.844;26.082;2022-10-31T09:51:14;101175.91;;;28.92;29.37
9335;BME280;4706;41.844;26.082;2022-10-31T09:53:45;101177.53;;;29.04;29.39
9335;BME280;4706;41.844;26.082;2022-10-31T09:56:13;101178.66;;;29.14;29.23
9335;BME280;4706;41.844;26.082;2022-10-31T09:58:53;101172.94;;;29.24;29.00
9335;BME280;4706;41.844;26.082;2022-10-31T10:06:42;101173.56;;;28.80;29.28
9335;BME280;4706;41.844;26.082;2022-10-31T10:09:10;101150.59;;;28.60;29.54
9335;BME280;4706;41.844;26.082;2022-10-31T10:15:24;101161.59;;;28.44;30.02
9335;BME280;4706;41.844;26.082;2022-10-31T10:18:29;101155.97;;;28.22;30.11
9335;BME280;4706;41.844;26.082;2022-10-31T10:21:09;101164.41;;;28.33;30.12
9335;BME280;4706;41.844;26.082;2022-10-31T10:28:40;101145.72;;;28.64;29.46
9335;BME280;4706;41.844;26.082;2022-10-31T10:33:56;101138.28;;;29.02;29.12
9335;BME280;4706;41.844;26.082;2022-10-31T10:39:29;101127.78;;;28.92;28.99
9335;BME280;4706;41.844;26.082;2022-10-31T10:41:57;101136.63;;;29.09;29.27
9335;BME280;4706;41.844;26.082;2022-10-31T10:44:47;101145.38;;;29.28;28.79
9335;BME280;4706;41.844;26.082;2022-10-31T10:47:41;101142.50;;;29.36;28.51
9335;BME280;4706;41.844;26.082;2022-10-31T10:50:41;101138.97;;;29.17;28.45
9335;BME280;4706;41.844;26.082;2022-10-31T10:59:13;101130.00;;;29.26;28.48
9335;BME280;4706;41.844;26.082;2022-10-31T11:01:41;101119.75;;;29.46;28.32
9335;BME280;4706;41.844;26.082;2022-10-31T11:04:26;101127.06;;;29.40;28.42
9335;BME280;4706;41.844;26.082;2022-10-31T11:07:08;101120.97;;;29.45;28.21
9335;BME280;4706;41.844;26.082;2022-10-31T11:09:35;101127.06;;;29.40;27.86
9335;BME280;4706;41.844;26.082;2022-10-31T11:12:09;101116.06;;;29.49;27.98
9335;BME280;4706;41.844;26.082;2022-10-31T11:14:44;101109.09;;;29.65;28.06
9335;BME280;4706;41.844;26.082;2022-10-31T11:17:29;101114.28;;;29.70;27.72
9335;BME280;4706;41.844;26.082;2022-10-31T11:20:24;101106.25;;;29.65;27.73
9335;BME280;4706;41.844;26.082;2022-10-31T11:23:04;101113.63;;;29.48;27.91
9335;BME280;4706;41.844;26.082;2022-10-31T11:25:30;101108.41;;;29.46;28.10
9335;BME280;4706;41.844;26.082;2022-10-31T11:28:03;101097.81;;;29.58;27.87
9335;BME280;4706;41.844;26.082;2022-10-31T11:30:30;101099.94;;;29.88;27.74
9335;BME280;4706;41.844;26.082;2022-10-31T11:33:00;101105.47;;;30.02;27.34
9335;BME280;4706;41.844;26.082;2022-10-31T11:35:26;101108.63;;;30.08;27.24
9335;BME280;4706;41.844;26.082;2022-10-31T11:37:56;101100.78;;;29.85;27.21
9335;BME280;4706;41.844;26.082;2022-10-31T11:40:26;101104.69;;;29.98;27.25
9335;BME280;4706;41.844;26.082;2022-10-31T11:42:54;101100.44;;;30.20;27.05
9335;BME280;4706;41.844;26.082;2022-10-31T11:45:31;101093.91;;;30.20;26.88
9335;BME280;4706;41.844;26.082;2022-10-31T11:47:58;101101.22;;;29.83;27.57
9335;BME280;4706;41.844;26.082;2022-10-31T11:50:40;101101.34;;;29.69;27.71
9335;BME280;4706;41.844;26.082;2022-10-31T11:53:30;101087.53;;;29.71;27.78
9335;BME280;4706;41.844;26.082;2022-10-31T11:56:04;101085.38;;;29.86;27.91
9335;BME280;4706;41.844;26.082;2022-10-31T11:58:30;101096.41;;;29.76;27.61
9335;BME280;4706;41.844;26.082;2022-10-31T12:00:57;101087.09;;;29.76;27.51
9335;BME280;4706;41.844;26.082;2022-10-31T12:05:55;101090.44;;;29.15;27.55
9335;BME280;4706;41.844;26.082;2022-10-31T12:08:28;101092.06;;;29.16;28.02
9335;BME280;4706;41.844;26.082;2022-10-31T12:13:33;101103.41;;;28.28;28.82
9335;BME280;4706;41.844;26.082;2022-10-31T12:16:26;101101.47;;;27.97;29.50
9335;BME280;4706;41.844;26.082;2022-10-31T12:19:20;101091.81;;;27.87;29.70
9335;BME280;4706;41.844;26.082;2022-10-31T12:22:02;101108.78;;;27.83;29.66
9335;BME280;4706;41.844;26.082;2022-10-31T12:36:20;101101.91;;;27.81;30.13
9335;BME280;4706;41.844;26.082;2022-10-31T12:47:37;101104.72;;;27.92;30.02
9335;BME280;4706;41.844;26.082;2022-10-31T12:58:37;101100.28;;;27.30;30.22
9335;BME280;4706;41.844;26.082;2022-10-31T13:06:43;101098.59;;;26.86;31.38
9335;BME280;4706;41.844;26.082;2022-10-31T13:09:17;101099.03;;;27.06;31.18
9335;BME280;4706;41.844;26.082;2022-10-31T13:11:46;101096.22;;;27.09;30.88
9335;BME280;4706;41.844;26.082;2022-10-31T13:16:46;101108.25;;;26.81;31.07
9335;BME280;4706;41.844;26.082;2022-10-31T13:19:20;101069.47;;;26.50;31.22
9335;BME280;4706;41.844;26.082;2022-10-31T13:24:52;101112.25;;;26.73;31.18
9335;BME280;4706;41.844;26.082;2022-10-31T13:27:25;101100.94;;;26.62;31.43
9335;BME280;4706;41.844;26.082;2022-10-31T13:32:25;101092.88;;;26.61;31.46
9335;BME280;4706;41.844;26.082;2022-10-31T13:34:54;101106.25;;;26.75;31.29
9335;BME280;4706;41.844;26.082;2022-10-31T13:37:35;101107.44;;;26.74;31.18
9335;BME280;4706;41.844;26.082;2022-10-31T13:40:05;101100.56;;;26.68;31.43
9335;BME280;4706;41.844;26.082;2022-10-31T13:45:20;101094.44;;;26.51;31.08
9335;BME280;4706;41.844;26.082;2022-10-31T13:50:58;101102.03;;;26.40;31.41
9335;BME280;4706;41.844;26.082;2022-10-31T13:58:34;101100.44;;;26.39;31.69
9335;BME280;4706;41.844;26.082;2022-10-31T14:03:37;101101.56;;;26.24;31.95
9335;BME280;4706;41.844;26.082;2022-10-31T14:06:04;101103.56;;;26.20;32.06
9335;BME280;4706;41.844;26.082;2022-10-31T14:08:34;101101.16;;;26.18;32.39
9335;BME280;4706;41.844;26.082;2022-10-31T14:11:01;101100.28;;;26.07;32.66
9335;BME280;4706;41.844;26.082;2022-10-31T14:13:32;101101.47;;;26.09;32.50
9335;BME280;4706;41.844;26.082;2022-10-31T14:16:05;101095.75;;;25.95;32.48
9335;BME280;4706;41.844;26.082;2022-10-31T14:18:34;101103.84;;;25.97;32.81
9335;BME280;4706;41.844;26.082;2022-10-31T14:21:01;101114.28;;;25.92;33.00
9335;BME280;4706;41.844;26.082;2022-10-31T14:28:42;101110.03;;;25.68;33.32
9335;BME280;4706;41.844;26.082;2022-10-31T14:31:30;101113.66;;;25.65;33.34
9335;BME280;4706;41.844;26.082;2022-10-31T14:39:24;101122.06;;;25.58;33.77
9335;BME280;4706;41.844;26.082;2022-10-31T14:47:36;101120.81;;;25.52;33.85
9335;BME280;4706;41.844;26.082;2022-10-31T14:50:21;101122.75;;;25.44;33.72
9335;BME280;4706;41.844;26.082;2022-10-31T14:52:50;101124.41;;;25.53;33.68
9335;BME280;4706;41.844;26.082;2022-10-31T14:55:17;101126.34;;;25.41;33.85
9335;BME280;4706;41.844;26.082;2022-10-31T14:57:54;101125.38;;;25.23;34.22
9335;BME280;4706;41.844;26.082;2022-10-31T15:00:22;101124.13;;;25.17;34.76
9335;BME280;4706;41.844;26.082;2022-10-31T15:05:27;101128.09;;;25.16;34.89
9335;BME280;4706;41.844;26.082;2022-10-31T15:07:55;101132.38;;;25.03;35.83
9335;BME280;4706;41.844;26.082;2022-10-31T15:10:31;101145.94;;;24.93;35.83
9335;BME280;4706;41.844;26.082;2022-10-31T15:13:31;101131.38;;;24.84;35.84
9335;BME280;4706;41.844;26.082;2022-10-31T15:15:56;101144.19;;;24.82;35.90
9335;BME280;4706;41.844;26.082;2022-10-31T15:18:27;101148.63;;;24.79;35.56
9335;BME280;4706;41.844;26.082;2022-10-31T15:20:54;101139.69;;;24.74;35.65
9335;BME280;4706;41.844;26.082;2022-10-31T15:23:39;101136.06;;;24.73;35.86
9335;BME280;4706;41.844;26.082;2022-10-31T15:26:05;101146.88;;;24.71;35.63
9335;BME280;4706;41.844;26.082;2022-10-31T15:28:30;101140.75;;;24.62;36.03
9335;BME280;4706;41.844;26.082;2022-10-31T15:30:58;101149.59;;;24.60;36.24
9335;BME280;4706;41.844;26.082;2022-10-31T15:33:29;101149.81;;;24.48;36.47